< < Back
Terminal Aerodrome Forecast


Current Version              Previous Versions:   1  2  3  4  5  6  7  8  9  

Terminal Aerodrome Forecast

961
FTUS42 KTAE 212300
TAFVLD
TAF
KVLD 212320Z 2200/2224 00000KT P6SM SKC
     FM221500 02007KT P6SM SKC=



Latest METAR

563
SAUS70 KWBC 220300 RRD
MTRVLD
METAR KVLD 220253Z 18003KT 10SM CLR 13/11 A3000 RMK AO2 SLP165 T01330111
51021


USA.gov is the U.S. government's official web portal to all federal, state and local government web resources and services.